Time;durP1;ratioP1;P1;durP2;ratioP2;P2;SDS_P1;SDS_P2;PMS_P1;PMS_P2;Temp;Humidity;BMP_temperature;BMP_pressure;BME280_temperature;BME280_humidity;BME280_pressure;Samples;Min_cycle;Max_cycle;Signal;HPM_P1;HPM_P2
2022/09/02 00:01:37;;;;;;;;;;;;;;;26.92;55.34;99205.91;4970477;28;19921;-78
2022/09/02 00:04:04;;;;;;;;;;;;;;;26.90;54.15;99202.69;4970313;28;20011;-78
2022/09/02 00:06:30;;;;;;;;;;;;;;;26.90;52.92;99205.41;4970555;28;20409;-78
2022/09/02 00:08:55;;;;;;;;;;;;;;;26.89;55.58;99201.06;4970309;28;19918;-78
2022/09/02 00:11:23;;;;;;;;;;;;;;;26.87;55.69;99208.69;4970426;28;19921;-78
2022/09/02 00:13:49;;;;;;;;;;;;;;;26.89;55.70;99203.78;4970423;28;19907;-78
2022/09/02 00:16:16;;;;;;;;;;;;;;;26.86;54.22;99207.88;4970372;28;20397;-78
2022/09/02 00:18:43;;;;;;;;;;;;;;;26.85;54.85;99200.06;4968973;28;19975;-78
2022/09/02 00:21:10;;;;;;;;;;;;;;;26.84;53.27;99203.88;4968943;28;19997;-78
2022/09/02 00:23:37;;;;;;;;;;;;;;;26.86;54.42;99196.25;4970282;28;19972;-78
2022/09/02 00:26:02;;;;;;;;;;;;;;;26.82;53.91;99200.63;4970059;28;19919;-78
2022/09/02 00:28:28;;;;;;;;;;;;;;;26.81;54.36;99199.03;4970160;28;20010;-78
2022/09/02 00:30:53;;;;;;;;;;;;;;;26.82;56.22;99206.06;4969979;28;19961;-78
2022/09/02 00:33:18;;;;;;;;;;;;;;;26.80;54.58;99200.94;4970087;28;19914;-78
2022/09/02 00:35:44;;;;;;;;;;;;;;;26.79;54.64;99204.75;4970199;28;19914;-78
2022/09/02 00:38:09;;;;;;;;;;;;;;;26.77;56.57;99198.00;4968884;28;20413;-78
2022/09/02 00:40:35;;;;;;;;;;;;;;;26.72;55.80;99201.56;4969807;28;19915;-78
2022/09/02 00:43:00;;;;;;;;;;;;;;;26.69;54.92;99199.44;4969840;28;20299;-78
2022/09/02 00:45:26;;;;;;;;;;;;;;;26.64;56.89;99198.69;4968713;28;19926;-78
2022/09/02 00:47:51;;;;;;;;;;;;;;;26.56;55.13;99202.88;4969722;28;19914;-78
2022/09/02 00:50:18;;;;;;;;;;;;;;;26.59;57.31;99202.28;4969764;28;20603;-78
2022/09/02 00:52:46;;;;;;;;;;;;;;;26.60;55.23;99196.56;4969546;28;20379;-78
2022/09/02 00:55:38;;;;;;;;;;;;;;;26.61;54.02;99194.69;4971875;28;19929;-78
2022/09/02 00:58:14;;;;;;;;;;;;;;;26.60;54.92;99202.00;4972529;28;19914;-78
2022/09/02 01:00:41;;;;;;;;;;;;;;;26.58;57.33;99190.66;4973092;28;19997;-78
2022/09/02 01:03:08;;;;;;;;;;;;;;;26.57;55.87;99193.66;4972933;28;19952;-78
2022/09/02 01:05:35;;;;;;;;;;;;;;;26.54;57.28;99196.94;4973068;28;20372;-78
2022/09/02 01:08:02;;;;;;;;;;;;;;;26.48;58.30;99201.63;4972926;28;19956;-78
2022/09/02 01:10:29;;;;;;;;;;;;;;;26.46;57.30;99194.88;4973242;28;20283;-78
2022/09/02 01:12:56;;;;;;;;;;;;;;;26.48;55.97;99198.09;4972940;28;19949;-78
2022/09/02 01:15:22;;;;;;;;;;;;;;;26.48;58.35;99195.41;4971714;28;19921;-78
2022/09/02 01:17:48;;;;;;;;;;;;;;;26.48;57.69;99190.78;4973034;28;19915;-78
2022/09/02 01:20:15;;;;;;;;;;;;;;;26.50;56.57;99190.50;4972760;28;19929;-78
2022/09/02 01:22:41;;;;;;;;;;;;;;;26.50;57.50;99188.59;4972936;28;19914;-78
2022/09/02 01:25:12;;;;;;;;;;;;;;;26.49;58.26;99194.28;4971523;28;20008;-78
2022/09/02 01:27:38;;;;;;;;;;;;;;;26.48;57.97;99195.41;4972805;28;19914;-78
2022/09/02 01:30:04;;;;;;;;;;;;;;;26.49;58.19;99200.50;4973083;28;20005;-78
2022/09/02 01:32:30;;;;;;;;;;;;;;;26.46;57.45;99192.97;4972712;28;20383;-78
2022/09/02 01:34:56;;;;;;;;;;;;;;;26.44;57.69;99186.25;4972801;28;20005;-78
2022/09/02 01:37:22;;;;;;;;;;;;;;;26.39;58.27;99191.72;4972644;28;19997;-78
2022/09/02 01:39:48;;;;;;;;;;;;;;;26.38;58.23;99195.53;4972772;28;19985;-78
2022/09/02 01:42:14;;;;;;;;;;;;;;;26.36;57.87;99187.69;4972492;28;19921;-78
2022/09/02 01:44:42;;;;;;;;;;;;;;;26.39;56.59;99191.72;4971167;28;20326;-78
2022/09/02 01:47:16;;;;;;;;;;;;;;;26.42;56.96;99183.81;4972488;28;19915;-78
2022/09/02 01:49:42;;;;;;;;;;;;;;;26.44;56.58;99184.34;4972367;28;19914;-78
2022/09/02 01:52:07;;;;;;;;;;;;;;;26.41;57.29;99179.50;4972337;28;19984;-78
2022/09/02 01:54:33;;;;;;;;;;;;;;;26.40;58.08;99180.59;4972316;28;19921;-78
2022/09/02 01:56:58;;;;;;;;;;;;;;;26.38;57.73;99173.88;4972594;28;20376;-78
2022/09/02 01:59:23;;;;;;;;;;;;;;;26.39;56.36;99184.41;4972451;28;19914;-78
2022/09/02 02:01:48;;;;;;;;;;;;;;;26.37;56.40;99188.50;4971024;28;20452;-78
2022/09/02 02:04:14;;;;;;;;;;;;;;;26.34;55.79;99181.75;4971740;28;19971;-78
2022/09/02 02:06:41;;;;;;;;;;;;;;;26.27;58.92;99190.22;4972416;28;19914;-78
2022/09/02 02:09:07;;;;;;;;;;;;;;;26.24;57.40;99184.56;4972044;28;19967;-78
2022/09/02 02:11:32;;;;;;;;;;;;;;;26.20;56.65;99184.34;4972084;28;19949;-78
2022/09/02 02:13:57;;;;;;;;;;;;;;;26.19;59.13;99185.44;4972033;28;20392;-78
2022/09/02 02:16:23;;;;;;;;;;;;;;;26.17;57.83;99186.81;4970785;28;20432;-78
2022/09/02 02:18:48;;;;;;;;;;;;;;;26.14;58.33;99184.69;4971991;28;19922;-78
2022/09/02 02:21:13;;;;;;;;;;;;;;;26.14;57.79;99182.00;4972110;28;19949;-78
2022/09/02 02:23:39;;;;;;;;;;;;;;;26.14;57.14;99171.97;4970731;28;20382;-78
2022/09/02 02:26:04;;;;;;;;;;;;;;;26.15;57.56;99175.47;4971607;28;19980;-78
2022/09/02 02:28:29;;;;;;;;;;;;;;;26.13;56.65;99181.19;4971834;28;19964;-78
2022/09/02 02:30:55;;;;;;;;;;;;;;;26.10;57.92;99183.66;4971617;28;19914;-78
2022/09/02 02:33:20;;;;;;;;;;;;;;;26.06;56.29;99188.84;4971613;28;19918;-78
2022/09/02 02:35:46;;;;;;;;;;;;;;;26.02;58.37;99187.81;4971781;28;19956;-78
2022/09/02 02:38:11;;;;;;;;;;;;;;;26.00;57.09;99186.44;4971682;28;19957;-78
2022/09/02 02:40:36;;;;;;;;;;;;;;;25.96;58.19;99181.63;4971685;28;19914;-78
2022/09/02 02:43:02;;;;;;;;;;;;;;;25.94;57.38;99191.91;4971539;28;20442;-78
2022/09/02 02:45:28;;;;;;;;;;;;;;;25.90;57.51;99193.59;4971797;28;20405;-78
2022/09/02 02:47:53;;;;;;;;;;;;;;;25.84;59.63;99194.72;4971540;28;20006;-78
2022/09/02 02:50:19;;;;;;;;;;;;;;;25.84;59.50;99192.03;4970892;28;19921;-78
2022/09/02 02:52:45;;;;;;;;;;;;;;;25.85;58.42;99190.13;4971565;28;19914;-78
2022/09/02 02:55:11;;;;;;;;;;;;;;;25.85;57.99;99184.72;4971479;28;19940;-78
2022/09/02 02:57:38;;;;;;;;;;;;;;;25.85;59.91;99185.53;4971385;28;20333;-78
2022/09/02 03:00:09;;;;;;;;;;;;;;;25.82;58.04;99180.69;4971512;28;19914;-78
2022/09/02 03:02:35;;;;;;;;;;;;;;;25.81;58.13;99180.97;4971588;28;19954;-78
2022/09/02 03:05:02;;;;;;;;;;;;;;;25.78;59.17;99187.78;4971179;28;19961;-78
2022/09/02 03:07:27;;;;;;;;;;;;;;;25.79;59.39;99193.97;4971209;28;20451;-78
2022/09/02 03:09:53;;;;;;;;;;;;;;;25.78;58.23;99182.34;4971257;28;19914;-78
2022/09/02 03:12:18;;;;;;;;;;;;;;;25.72;57.51;99178.09;4971298;28;20314;-78
2022/09/02 03:14:43;;;;;;;;;;;;;;;25.66;60.73;99187.34;4970611;28;20031;-78
2022/09/02 03:17:09;;;;;;;;;;;;;;;25.62;59.86;99192.50;4971019;28;20352;-78
2022/09/02 03:19:34;;;;;;;;;;;;;;;25.61;59.47;99190.88;4970986;28;19922;-78
2022/09/02 03:22:00;;;;;;;;;;;;;;;25.58;60.15;99188.75;4971159;28;20060;-78
2022/09/02 03:24:25;;;;;;;;;;;;;;;25.62;58.52;99195.19;4971196;28;19922;-78
2022/09/02 03:26:50;;;;;;;;;;;;;;;25.66;58.29;99192.75;4971119;28;20394;-78
2022/09/02 03:29:16;;;;;;;;;;;;;;;25.64;60.24;99189.50;4970921;28;19914;-78
2022/09/02 03:31:41;;;;;;;;;;;;;;;25.63;58.76;99188.69;4969736;28;19968;-78
2022/09/02 03:34:06;;;;;;;;;;;;;;;25.64;57.55;99195.72;4970903;28;19914;-78
2022/09/02 03:36:34;;;;;;;;;;;;;;;25.63;59.86;99185.19;4970908;28;20372;-78
2022/09/02 03:38:59;;;;;;;;;;;;;;;25.62;58.42;99183.56;4970903;28;19999;-78
2022/09/02 03:41:25;;;;;;;;;;;;;;;25.66;58.74;99187.34;4970886;28;20406;-78
2022/09/02 03:43:51;;;;;;;;;;;;;;;25.64;59.30;99194.91;4971014;28;19918;-78
2022/09/02 03:46:16;;;;;;;;;;;;;;;25.64;59.94;99195.72;4970544;28;20405;-78
2022/09/02 03:48:42;;;;;;;;;;;;;;;25.65;58.88;99191.13;4970454;28;19945;-78
2022/09/02 03:51:08;;;;;;;;;;;;;;;25.65;60.80;99200.06;4970482;28;19918;-78
2022/09/02 03:53:34;;;;;;;;;;;;;;;25.64;57.88;99201.13;4970657;28;19972;-78
2022/09/02 03:56:06;;;;;;;;;;;;;;;25.66;59.81;99200.88;4970541;28;19914;-78
2022/09/02 03:58:32;;;;;;;;;;;;;;;25.63;60.03;99190.59;4970510;28;19922;-78
2022/09/02 04:00:57;;;;;;;;;;;;;;;25.64;58.92;99203.81;4970518;28;19914;-78
2022/09/02 04:03:22;;;;;;;;;;;;;;;25.66;59.22;99206.28;4970406;28;20284;-78
2022/09/02 04:05:49;;;;;;;;;;;;;;;25.67;57.89;99207.88;4968980;28;19968;-78
2022/09/02 04:08:15;;;;;;;;;;;;;;;25.67;58.95;99205.19;4968901;28;20314;-78
2022/09/02 04:10:40;;;;;;;;;;;;;;;25.65;59.20;99210.88;4970413;28;19921;-78
2022/09/02 04:13:05;;;;;;;;;;;;;;;25.65;57.97;99208.19;4970524;28;19976;-78
2022/09/02 04:15:31;;;;;;;;;;;;;;;25.66;58.81;99214.38;4970321;28;20311;-78
2022/09/02 04:17:56;;;;;;;;;;;;;;;25.63;59.19;99210.31;4969067;28;19968;-78
2022/09/02 04:20:21;;;;;;;;;;;;;;;25.64;59.88;99211.13;4970129;28;20295;-78
2022/09/02 04:22:47;;;;;;;;;;;;;;;25.63;59.82;99212.22;4970295;28;19971;-78
2022/09/02 04:25:12;;;;;;;;;;;;;;;25.61;59.55;99219.81;4970049;28;19925;-78
2022/09/02 04:27:37;;;;;;;;;;;;;;;25.59;60.76;99217.41;4974839;28;20393;-78
2022/09/02 04:30:04;;;;;;;;;;;;;;;25.60;60.11;99219.00;4976652;28;19910;-78
2022/09/02 04:32:30;;;;;;;;;;;;;;;25.60;59.49;99223.59;4976545;28;19914;-78
2022/09/02 04:34:55;;;;;;;;;;;;;;;25.60;58.05;99221.72;4975170;28;19914;-78
2022/09/02 04:37:20;;;;;;;;;;;;;;;25.62;60.23;99218.72;4976594;28;19993;-78
2022/09/02 04:39:45;;;;;;;;;;;;;;;25.63;59.11;99218.44;4976383;28;20390;-78
2022/09/02 04:42:11;;;;;;;;;;;;;;;25.62;60.25;99222.22;4976268;28;19976;-78
2022/09/02 04:44:36;;;;;;;;;;;;;;;25.61;60.52;99228.72;4975270;28;19925;-78
2022/09/02 04:47:01;;;;;;;;;;;;;;;25.60;59.36;99223.59;4975221;28;19914;-78
2022/09/02 04:49:30;;;;;;;;;;;;;;;25.63;59.09;99225.75;4976492;28;19914;-78
2022/09/02 04:51:55;;;;;;;;;;;;;;;25.60;58.14;99227.13;4976242;28;19914;-78
2022/09/02 04:54:20;;;;;;;;;;;;;;;25.62;60.43;99237.66;4976309;28;19936;-78
2022/09/02 04:56:46;;;;;;;;;;;;;;;25.64;58.78;99232.75;4976296;28;20318;-78
2022/09/02 04:59:11;;;;;;;;;;;;;;;25.62;61.12;99233.06;4976371;28;20007;-78
2022/09/02 05:01:36;;;;;;;;;;;;;;;25.65;56.39;99239.78;4976168;28;20397;-78
2022/09/02 05:04:08;;;;;;;;;;;;;;;25.66;58.95;99241.44;4975976;28;20333;-78
2022/09/02 05:06:34;;;;;;;;;;;;;;;25.68;56.36;99247.34;4976284;28;19914;-78
2022/09/02 05:09:00;;;;;;;;;;;;;;;25.65;58.79;99242.50;4974896;28;19937;-78
2022/09/02 05:11:27;;;;;;;;;;;;;;;25.67;57.37;99242.22;4976081;28;19918;-78
2022/09/02 05:13:53;;;;;;;;;;;;;;;25.67;57.26;99236.81;4974838;28;20428;-78
2022/09/02 05:16:19;;;;;;;;;;;;;;;25.68;58.79;99241.94;4976844;28;19949;-78
2022/09/02 05:18:45;;;;;;;;;;;;;;;25.73;59.19;99241.09;4977687;28;20016;-78
2022/09/02 05:21:10;;;;;;;;;;;;;;;25.80;58.29;99242.38;4993559;28;20354;-78
2022/09/02 05:23:36;;;;;;;;;;;;;;;25.84;58.42;99242.63;4990998;28;19914;-78
2022/09/02 05:26:05;;;;;;;;;;;;;;;25.80;58.38;99239.69;4975853;28;20420;-78
2022/09/02 05:28:30;;;;;;;;;;;;;;;25.79;58.51;99240.75;4976442;28;19926;-78
2022/09/02 05:31:01;;;;;;;;;;;;;;;25.81;58.30;99243.19;4982116;28;19942;-78
2022/09/02 05:33:26;;;;;;;;;;;;;;;25.80;58.79;99244.28;4995715;28;19914;-78
2022/09/02 05:35:53;;;;;;;;;;;;;;;25.81;58.76;99240.47;4981474;28;20447;-78
2022/09/02 05:38:19;;;;;;;;;;;;;;;25.83;58.15;99239.09;4973742;28;20005;-78
2022/09/02 05:40:44;;;;;;;;;;;;;;;25.86;57.94;99235.81;4972556;28;20001;-78
2022/09/02 05:43:09;;;;;;;;;;;;;;;25.85;58.32;99234.22;4972356;28;19926;-78
2022/09/02 05:45:36;;;;;;;;;;;;;;;25.87;59.26;99234.72;4979327;28;20433;-77
2022/09/02 05:49:05;;;;;;;;;;;;;;;25.92;59.12;99237.38;4987510;28;19917;-77
2022/09/02 05:50:46;;;;;;;;;;;;;;;26.00;56.52;99237.84;4973091;28;19925;-78
2022/09/02 05:53:12;;;;;;;;;;;;;;;26.05;57.01;99229.72;4979201;28;19917;-78
2022/09/02 05:55:37;;;;;;;;;;;;;;;26.03;57.90;99227.28;4980903;28;19972;-78
2022/09/02 05:58:02;;;;;;;;;;;;;;;26.04;57.57;99234.31;4970446;28;19925;-78
2022/09/02 06:00:29;;;;;;;;;;;;;;;26.05;57.17;99227.00;4977080;28;19918;-78
2022/09/02 06:02:54;;;;;;;;;;;;;;;26.10;57.39;99229.66;4971959;28;20009;-78
2022/09/02 06:05:20;;;;;;;;;;;;;;;26.19;56.71;99230.63;4971891;28;20006;-78
2022/09/02 06:07:45;;;;;;;;;;;;;;;26.23;56.38;99226.25;4971295;28;19918;-78
2022/09/02 06:10:11;;;;;;;;;;;;;;;26.30;56.88;99221.31;4972317;28;19992;-78
2022/09/02 06:12:36;;;;;;;;;;;;;;;26.39;56.46;99219.59;4970114;28;20379;-80
2022/09/02 06:15:02;;;;;;;;;;;;;;;26.49;56.07;99221.38;4976123;28;19928;-78
2022/09/02 06:17:27;;;;;;;;;;;;;;;26.57;56.01;99218.81;4990710;28;19914;-78
2022/09/02 06:19:53;;;;;;;;;;;;;;;26.64;56.93;99223.06;4990924;28;20355;-78
2022/09/02 06:22:18;;;;;;;;;;;;;;;26.68;54.87;99219.50;4991116;28;19918;-78
2022/09/02 06:24:43;;;;;;;;;;;;;;;26.70;55.88;99222.72;4991059;28;20454;-78
2022/09/02 06:27:09;;;;;;;;;;;;;;;26.76;54.99;99223.47;4991319;28;19920;-78
2022/09/02 06:29:34;;;;;;;;;;;;;;;26.78;55.13;99224.00;4991169;28;19918;-78
2022/09/02 06:31:59;;;;;;;;;;;;;;;26.85;54.03;99222.53;4991066;28;20001;-78
2022/09/02 06:34:26;;;;;;;;;;;;;;;26.87;55.49;99224.94;4989852;28;20005;-78
2022/09/02 06:36:51;;;;;;;;;;;;;;;26.98;54.80;99231.84;4991090;28;19913;-78
2022/09/02 06:39:18;;;;;;;;;;;;;;;26.99;55.13;99232.66;4991221;28;19917;-78
2022/09/02 06:41:45;;;;;;;;;;;;;;;27.04;54.94;99236.09;4989783;28;19914;-78
2022/09/02 06:44:11;;;;;;;;;;;;;;;27.13;54.73;99237.06;4991152;28;19914;-78
2022/09/02 06:46:39;;;;;;;;;;;;;;;27.18;54.33;99239.69;4990805;28;19920;-78
2022/09/02 06:49:05;;;;;;;;;;;;;;;27.21;54.46;99239.09;4990586;28;20398;-78
2022/09/02 06:51:35;;;;;;;;;;;;;;;27.23;53.71;99244.22;4988411;28;19921;-79
2022/09/02 06:54:01;;;;;;;;;;;;;;;27.26;53.37;99240.91;4990598;28;19920;-79
2022/09/02 06:56:26;;;;;;;;;;;;;;;27.33;53.98;99251.38;4990968;28;19914;-79
2022/09/02 06:58:52;;;;;;;;;;;;;;;27.37;53.87;99246.97;4991080;28;19963;-78
2022/09/02 07:01:22;;;;;;;;;;;;;;;27.40;53.79;99241.78;4990571;28;20031;-78
2022/09/02 07:06:35;;;;;;;;;;;;;;;27.53;53.54;99248.38;4990831;28;20005;-78
2022/09/02 07:09:00;;;;;;;;;;;;;;;27.52;53.61;99246.75;4990340;28;19914;-78
2022/09/02 07:11:26;;;;;;;;;;;;;;;27.53;53.08;99243.75;4990576;28;19925;-78
2022/09/02 07:13:51;;;;;;;;;;;;;;;27.56;53.46;99244.25;4990433;28;19914;-78
2022/09/02 07:16:17;;;;;;;;;;;;;;;27.56;52.71;99250.50;4990294;28;19918;-78
2022/09/02 07:18:43;;;;;;;;;;;;;;;27.54;53.27;99252.69;4988747;28;20417;-78
2022/09/02 07:21:09;;;;;;;;;;;;;;;27.57;53.21;99254.00;4988283;28;20480;-78
2022/09/02 07:23:34;;;;;;;;;;;;;;;27.56;53.52;99255.91;4988258;28;20378;-78
2022/09/02 07:25:59;;;;;;;;;;;;;;;27.57;52.98;99254.81;4989478;28;19925;-78
2022/09/02 07:28:25;;;;;;;;;;;;;;;27.62;52.70;99253.97;4989575;28;19924;-78
2022/09/02 07:30:53;;;;;;;;;;;;;;;27.70;52.38;99256.00;4990138;28;19920;-78
2022/09/02 07:33:19;;;;;;;;;;;;;;;27.77;52.27;99257.22;4990182;28;19914;-78
2022/09/02 07:35:44;;;;;;;;;;;;;;;27.82;52.53;99254.41;4989861;28;19914;-78
2022/09/02 07:38:10;;;;;;;;;;;;;;;27.89;52.41;99258.63;4989809;28;19913;-78
2022/09/02 07:40:36;;;;;;;;;;;;;;;27.99;51.42;99256.53;4990022;28;20008;-79
2022/09/02 07:43:02;;;;;;;;;;;;;;;28.02;51.51;99250.53;4990075;28;20012;-79
2022/09/02 07:45:28;;;;;;;;;;;;;;;28.11;51.58;99248.72;4988602;28;19921;-79
2022/09/02 07:47:54;;;;;;;;;;;;;;;28.15;51.24;99252.44;4990053;28;19971;-79
2022/09/02 07:50:19;;;;;;;;;;;;;;;28.19;51.47;99249.94;4989901;28;19921;-79
2022/09/02 07:52:45;;;;;;;;;;;;;;;28.18;51.33;99253.75;4989723;28;19949;-79
2022/09/02 07:55:10;;;;;;;;;;;;;;;28.22;51.22;99248.53;4989765;28;19952;-79
2022/09/02 07:57:35;;;;;;;;;;;;;;;28.33;51.27;99250.00;4989723;28;19936;-79
2022/09/02 08:00:01;;;;;;;;;;;;;;;28.42;51.14;99254.41;4989750;28;19918;-79
2022/09/02 08:02:26;;;;;;;;;;;;;;;28.55;50.92;99250.06;4989297;28;20389;-79
2022/09/02 08:04:52;;;;;;;;;;;;;;;28.65;50.79;99249.06;4985876;28;20145;-79
2022/09/02 08:07:22;;;;;;;;;;;;;;;28.71;50.55;99250.56;4973319;28;19930;-79
2022/09/02 08:09:48;;;;;;;;;;;;;;;28.76;50.49;99247.72;4979020;28;19918;-79
2022/09/02 08:12:13;;;;;;;;;;;;;;;28.84;49.98;99248.94;4970024;28;19981;-78
2022/09/02 08:14:38;;;;;;;;;;;;;;;28.98;49.37;99249.72;4970097;28;19914;-78
2022/09/02 08:17:03;;;;;;;;;;;;;;;29.06;48.88;99247.09;4970294;28;19933;-78
2022/09/02 08:19:29;;;;;;;;;;;;;;;29.10;48.45;99250.81;4970553;28;19922;-78
2022/09/02 08:21:55;;;;;;;;;;;;;;;29.17;48.57;99252.31;4970235;28;20311;-78
2022/09/02 08:24:20;;;;;;;;;;;;;;;29.34;48.35;99249.72;4973411;28;19926;-78
2022/09/02 08:26:45;;;;;;;;;;;;;;;29.47;47.95;99251.59;4987685;28;19940;-78
2022/09/02 08:29:11;;;;;;;;;;;;;;;29.56;47.54;99241.56;4989514;28;20365;-79
2022/09/02 08:31:36;;;;;;;;;;;;;;;29.65;47.16;99242.44;4982913;28;19945;-79
2022/09/02 08:34:02;;;;;;;;;;;;;;;29.64;46.94;99249.00;4969925;28;19915;-79
2022/09/02 08:36:27;;;;;;;;;;;;;;;29.78;47.20;99246.22;4970550;28;19988;-79
2022/09/02 08:38:54;;;;;;;;;;;;;;;29.83;46.60;99232.47;4975363;28;19975;-79
2022/09/02 08:41:30;;;;;;;;;;;;;;;29.93;46.33;99236.84;4969494;28;19925;-79
2022/09/02 08:43:57;;;;;;;;;;;;;;;30.16;46.66;99234.88;4972855;28;19979;-79
2022/09/02 08:46:25;;;;;;;;;;;;;;;30.20;45.74;99231.22;4979594;28;19922;-78
2022/09/02 08:49:07;;;;;;;;;;;;;;;30.03;45.52;99231.97;4974377;28;19922;-79
2022/09/02 08:51:54;;;;;;;;;;;;;;;29.86;45.84;99220.97;4972752;28;19979;-79
2022/09/02 08:54:20;;;;;;;;;;;;;;;29.76;46.45;99223.16;4972457;28;19957;-78
2022/09/02 08:56:47;;;;;;;;;;;;;;;29.72;46.56;99214.78;4972034;28;19964;-78
2022/09/02 08:59:14;;;;;;;;;;;;;;;29.90;46.38;99202.09;4974489;28;19919;-78
2022/09/02 09:01:43;;;;;;;;;;;;;;;30.11;45.92;99211.31;4982348;28;19952;-78
2022/09/02 09:04:17;;;;;;;;;;;;;;;30.13;45.59;99203.66;4969506;28;19957;-78
2022/09/02 09:06:52;;;;;;;;;;;;;;;30.16;45.11;99204.94;4969130;28;19918;-78
2022/09/02 09:09:36;;;;;;;;;;;;;;;30.14;45.77;99201.72;4968592;28;19922;-78
2022/09/02 09:12:22;;;;;;;;;;;;;;;29.99;45.23;99192.84;4970453;28;20005;-78
2022/09/02 09:15:02;;;;;;;;;;;;;;;30.08;44.77;99187.44;4971488;28;19921;-78
2022/09/02 09:17:27;;;;;;;;;;;;;;;30.44;45.08;99170.88;4971397;28;19918;-78
2022/09/02 09:19:54;;;;;;;;;;;;;;;30.80;44.19;99172.56;4972137;28;19991;-78
2022/09/02 09:22:21;;;;;;;;;;;;;;;30.87;43.48;99162.78;4993333;28;19961;-78
2022/09/02 09:24:47;;;;;;;;;;;;;;;31.16;41.24;99147.69;4980654;28;19922;-78
2022/09/02 09:27:18;;;;;;;;;;;;;;;31.48;42.25;99154.56;4980250;28;20312;-78
2022/09/02 09:29:44;;;;;;;;;;;;;;;31.79;41.13;99149.66;4984044;28;19941;-78
2022/09/02 09:32:32;;;;;;;;;;;;;;;31.76;41.17;99144.03;4991487;28;19914;-79
2022/09/02 09:35:00;;;;;;;;;;;;;;;31.71;41.12;99146.97;4972823;28;19936;-79
2022/09/02 09:37:40;;;;;;;;;;;;;;;31.83;40.88;99139.66;4986834;28;19918;-79
2022/09/02 09:40:32;;;;;;;;;;;;;;;32.06;40.35;99129.31;4980656;28;19965;-78
2022/09/02 09:43:11;;;;;;;;;;;;;;;32.34;40.44;99137.03;4972398;28;19922;-79
2022/09/02 09:45:36;;;;;;;;;;;;;;;32.40;39.04;99128.31;4971696;28;19922;-78
2022/09/02 09:48:39;;;;;;;;;;;;;;;32.16;39.91;99130.84;4975917;28;19906;-77
2022/09/02 09:51:02;;;;;;;;;;;;;;;32.22;40.73;99133.06;4990163;28;19920;-78
2022/09/02 09:53:32;;;;;;;;;;;;;;;32.50;38.64;99125.16;4983251;28;19952;-77
2022/09/02 09:55:57;;;;;;;;;;;;;;;32.73;38.86;99122.94;4971122;28;19918;-77
2022/09/02 09:58:26;;;;;;;;;;;;;;;32.80;39.63;99127.88;4972023;28;19997;-78
2022/09/02 10:00:55;;;;;;;;;;;;;;;32.68;39.05;99123.09;4972930;28;20006;-78
2022/09/02 10:03:22;;;;;;;;;;;;;;;32.35;38.70;99125.78;4991550;28;19906;-77
2022/09/02 10:05:51;;;;;;;;;;;;;;;32.08;38.75;99113.38;4987692;28;20398;-78
2022/09/02 10:08:16;;;;;;;;;;;;;;;31.93;39.46;99108.47;4989699;28;20390;-77
2022/09/02 10:11:01;;;;;;;;;;;;;;;31.99;38.79;99111.84;4988081;28;19925;-77
2022/09/02 10:13:28;;;;;;;;;;;;;;;32.07;39.25;99117.25;4972398;28;19964;-78
2022/09/02 10:16:01;;;;;;;;;;;;;;;32.19;39.65;99111.88;4978306;28;20459;-78
2022/09/02 10:18:32;;;;;;;;;;;;;;;32.40;38.91;99116.56;4977371;28;19926;-78
2022/09/02 10:21:13;;;;;;;;;;;;;;;32.45;38.51;99108.97;4973901;28;19922;-77
2022/09/02 10:23:44;;;;;;;;;;;;;;;32.21;38.28;99111.53;4987690;28;19982;-77
2022/09/02 10:26:13;;;;;;;;;;;;;;;32.42;38.38;99106.09;4973653;28;19964;-77
2022/09/02 10:28:58;;;;;;;;;;;;;;;32.77;37.12;99106.66;4973936;28;20505;-77
2022/09/02 10:31:39;;;;;;;;;;;;;;;32.93;36.74;99101.38;4967954;28;20390;-78
2022/09/02 10:34:08;;;;;;;;;;;;;;;32.88;37.31;99107.06;4975189;28;19987;-78
2022/09/02 10:36:33;;;;;;;;;;;;;;;33.03;36.86;99103.69;4974490;28;20378;-77
2022/09/02 10:39:19;;;;;;;;;;;;;;;32.89;37.26;99103.19;4975404;28;19921;-78
2022/09/02 10:41:45;;;;;;;;;;;;;;;32.85;36.86;99106.59;4966876;28;19925;-77
2022/09/02 10:44:22;;;;;;;;;;;;;;;32.73;36.99;99114.72;4979680;28;19918;-77
2022/09/02 10:47:01;;;;;;;;;;;;;;;32.55;37.44;99107.78;4971302;28;19922;-77
2022/09/02 10:49:29;;;;;;;;;;;;;;;32.96;37.23;99100.72;4978527;28;19934;-78
2022/09/02 10:52:03;;;;;;;;;;;;;;;33.45;36.94;99102.47;4976034;28;20322;-78
2022/09/02 10:54:34;;;;;;;;;;;;;;;33.93;35.66;99089.16;4974535;28;19967;-78
2022/09/02 10:57:00;;;;;;;;;;;;;;;34.34;35.80;99097.13;4988371;28;19929;-78
2022/09/02 10:59:30;;;;;;;;;;;;;;;34.36;34.35;99094.03;4988775;28;19913;-78
2022/09/02 11:02:05;;;;;;;;;;;;;;;34.31;35.09;99094.25;4988516;28;19917;-78
2022/09/02 11:04:55;;;;;;;;;;;;;;;33.94;34.44;99086.06;4977344;28;19967;-78
2022/09/02 11:07:25;;;;;;;;;;;;;;;33.55;35.83;99073.84;4968546;28;19940;-78
2022/09/02 11:10:06;;;;;;;;;;;;;;;33.30;35.69;99072.19;4974820;28;20321;-77
2022/09/02 11:12:40;;;;;;;;;;;;;;;33.12;36.91;99075.09;4983269;28;19951;-77
2022/09/02 11:15:11;;;;;;;;;;;;;;;32.95;36.20;99074.50;4985669;28;19918;-77
2022/09/02 11:17:48;;;;;;;;;;;;;;;32.84;36.42;99066.72;4982175;28;19979;-78
2022/09/02 11:20:13;;;;;;;;;;;;;;;32.79;36.89;99066.13;4978968;28;19952;-78
2022/09/02 11:22:54;;;;;;;;;;;;;;;32.85;36.68;99070.25;4978408;28;20448;-77
2022/09/02 11:25:19;;;;;;;;;;;;;;;32.77;36.58;99071.09;4972153;28;19922;-77
2022/09/02 11:27:58;;;;;;;;;;;;;;;32.69;36.56;99056.34;4975415;28;19937;-77
2022/09/02 11:30:34;;;;;;;;;;;;;;;32.59;36.32;99050.50;4982151;28;19965;-77
2022/09/02 11:33:03;;;;;;;;;;;;;;;32.51;36.71;99041.25;4981996;28;20360;-77
2022/09/02 11:35:31;;;;;;;;;;;;;;;32.43;36.15;99048.38;4970724;28;19986;-77
2022/09/02 11:38:02;;;;;;;;;;;;;;;32.40;36.36;99037.31;4983334;28;19982;-77
2022/09/02 11:40:30;;;;;;;;;;;;;;;32.58;36.16;99035.25;4971179;28;19925;-77
2022/09/02 11:43:00;;;;;;;;;;;;;;;33.22;35.51;99030.09;4975506;28;20004;-78
2022/09/02 11:45:32;;;;;;;;;;;;;;;33.83;34.42;99027.44;4978955;28;19922;-78
2022/09/02 11:48:20;;;;;;;;;;;;;;;34.31;34.38;99020.25;4970641;28;19914;-78
2022/09/02 11:50:55;;;;;;;;;;;;;;;34.81;32.86;99007.94;4970395;28;19922;-78
2022/09/02 11:53:26;;;;;;;;;;;;;;;35.01;33.61;99015.97;4972325;28;19918;-78
2022/09/02 11:56:07;;;;;;;;;;;;;;;35.26;32.53;99011.09;4985102;28;19926;-78
2022/09/02 11:58:34;;;;;;;;;;;;;;;35.49;33.39;99015.97;4987130;28;19917;-78
2022/09/02 12:01:03;;;;;;;;;;;;;;;35.71;31.95;99011.81;4973527;28;19962;-78
2022/09/02 12:03:30;;;;;;;;;;;;;;;35.07;32.82;98960.84;4970425;28;19967;-78
2022/09/02 12:06:04;;;;;;;;;;;;;;;35.12;31.86;99024.47;4985144;28;19917;-78
2022/09/02 12:08:35;;;;;;;;;;;;;;;34.96;32.16;99007.22;4988331;28;19964;-78
2022/09/02 12:11:05;;;;;;;;;;;;;;;35.03;32.12;99010.94;4980889;28;19943;-78
2022/09/02 12:13:30;;;;;;;;;;;;;;;35.18;32.36;99009.34;4968655;28;19930;-78
2022/09/02 12:16:11;;;;;;;;;;;;;;;35.35;31.30;99009.00;4975637;28;19918;-78
2022/09/02 12:18:36;;;;;;;;;;;;;;;35.47;31.25;99005.34;4967366;28;20311;-78
2022/09/02 12:21:05;;;;;;;;;;;;;;;35.64;31.37;99009.66;4970624;28;19963;-78
2022/09/02 12:23:48;;;;;;;;;;;;;;;35.75;30.81;99010.72;4969160;28;19962;-78
2022/09/02 12:26:21;;;;;;;;;;;;;;;35.77;30.63;99007.63;4974884;28;19926;-78
2022/09/02 12:28:47;;;;;;;;;;;;;;;35.81;31.21;99003.84;4988209;28;19914;-78
2022/09/02 12:31:37;;;;;;;;;;;;;;;35.81;32.31;99006.59;4989359;28;20417;-78
2022/09/02 12:34:22;;;;;;;;;;;;;;;35.72;31.18;98999.66;4976225;28;19922;-78
2022/09/02 12:36:53;;;;;;;;;;;;;;;35.58;30.03;99011.88;4969921;28;19925;-78
2022/09/02 12:39:21;;;;;;;;;;;;;;;35.40;30.20;99005.19;4985888;28;20340;-78
2022/09/02 12:41:52;;;;;;;;;;;;;;;35.13;31.58;99017.84;4988890;28;19918;-78
2022/09/02 12:44:22;;;;;;;;;;;;;;;34.49;33.15;99020.78;4986402;28;19962;-78
2022/09/02 12:47:08;;;;;;;;;;;;;;;33.87;33.61;99035.75;4988481;28;20461;-78
2022/09/02 12:49:36;;;;;;;;;;;;;;;33.49;34.90;99017.72;4992240;28;19917;-78
2022/09/02 12:52:11;;;;;;;;;;;;;;;33.35;35.64;99017.25;4992371;28;19936;-78
2022/09/02 12:54:37;;;;;;;;;;;;;;;33.28;35.58;98998.63;4977149;28;20466;-78
2022/09/02 12:57:02;;;;;;;;;;;;;;;33.51;35.47;98990.81;4978812;28;19998;-78